createdAt,value
2022-10-18T00:01:11.322Z,13.2
2022-10-18T00:03:02.352Z,13
2022-10-18T00:05:02.525Z,13.1
2022-10-18T00:07:04.480Z,13
2022-10-18T00:11:02.366Z,12.9
2022-10-18T00:13:02.336Z,13
2022-10-18T00:15:11.887Z,12.8
2022-10-18T00:17:02.567Z,12.7
2022-10-18T00:19:05.998Z,12.6
2022-10-18T00:21:09.858Z,12.6
2022-10-18T00:23:02.366Z,12.6
2022-10-18T00:25:05.951Z,12.6
2022-10-18T00:27:04.001Z,12.5
2022-10-18T00:29:04.190Z,12.4
2022-10-18T00:31:02.373Z,12.4
2022-10-18T00:33:02.179Z,12.4
2022-10-18T00:37:02.329Z,12.4
2022-10-18T00:39:06.063Z,12.3
2022-10-18T00:41:05.958Z,12.3
2022-10-18T00:43:02.671Z,12.2
2022-10-18T00:45:04.188Z,12.1
2022-10-18T00:49:06.165Z,12.2
2022-10-18T00:51:08.993Z,12.2
2022-10-18T00:53:02.335Z,12.2
2022-10-18T00:55:07.570Z,12.2
2022-10-18T00:57:04.465Z,12.2
2022-10-18T01:01:07.596Z,12.4
2022-10-18T01:03:02.219Z,12.5
2022-10-18T01:05:03.482Z,12.4
2022-10-18T01:07:06.576Z,12.2
2022-10-18T01:09:02.399Z,12.2
2022-10-18T01:11:03.534Z,12.1
2022-10-18T01:13:04.797Z,12.1
2022-10-18T01:15:05.113Z,12.1
2022-10-18T01:17:02.386Z,12
2022-10-18T01:19:05.074Z,12
2022-10-18T01:21:02.337Z,12
2022-10-18T01:23:06.388Z,12
2022-10-18T01:27:08.704Z,11.9
2022-10-18T01:29:07.145Z,11.8
2022-10-18T01:31:02.297Z,11.7
2022-10-18T01:33:09.210Z,11.8
2022-10-18T01:35:03.489Z,11.9
2022-10-18T01:37:02.213Z,12
2022-10-18T01:39:02.344Z,11.9
2022-10-18T01:41:05.376Z,12
2022-10-18T01:43:02.370Z,12
2022-10-18T01:45:02.337Z,11.9
2022-10-18T01:47:04.436Z,11.9
2022-10-18T01:49:02.332Z,12
2022-10-18T01:51:04.816Z,12
2022-10-18T01:53:09.430Z,12
2022-10-18T01:55:02.202Z,12.1
2022-10-18T01:57:07.720Z,12.2
2022-10-18T01:59:02.332Z,12.1
2022-10-18T02:01:02.254Z,11.9
2022-10-18T02:03:02.201Z,12
2022-10-18T02:05:02.347Z,11.9
2022-10-18T02:07:08.364Z,12
2022-10-18T02:09:02.604Z,12
2022-10-18T02:11:05.725Z,11.9
2022-10-18T02:13:02.336Z,12
2022-10-18T02:15:02.372Z,12.1
2022-10-18T02:17:02.464Z,12.1
2022-10-18T02:19:02.191Z,12.1
2022-10-18T02:21:02.409Z,12.1
2022-10-18T02:23:02.206Z,12.2
2022-10-18T02:25:07.932Z,12.2
2022-10-18T02:27:02.352Z,12.1
2022-10-18T02:29:02.350Z,12.1
2022-10-18T02:31:02.339Z,12.2
2022-10-18T02:33:02.358Z,12.1
2022-10-18T02:35:04.493Z,12.1
2022-10-18T02:37:02.342Z,12
2022-10-18T02:39:02.439Z,12
2022-10-18T02:41:04.140Z,12
2022-10-18T02:43:02.343Z,12
2022-10-18T02:45:04.722Z,12
2022-10-18T02:49:02.348Z,12
2022-10-18T02:51:02.344Z,12
2022-10-18T02:53:02.366Z,12
2022-10-18T02:55:06.582Z,11.9
2022-10-18T02:57:03.583Z,11.9
2022-10-18T02:59:10.463Z,11.8
2022-10-18T03:01:05.393Z,11.8
2022-10-18T03:03:02.238Z,11.8
2022-10-18T03:05:02.561Z,11.7
2022-10-18T03:07:02.360Z,11.7
2022-10-18T03:09:06.555Z,11.7
2022-10-18T03:11:02.369Z,11.8
2022-10-18T03:13:04.137Z,11.7
2022-10-18T03:15:03.975Z,11.6
2022-10-18T03:17:02.408Z,11.7
2022-10-18T03:19:02.207Z,11.7
2022-10-18T03:21:02.355Z,11.7
2022-10-18T03:23:04.490Z,11.7
2022-10-18T03:25:02.249Z,11.6
2022-10-18T03:27:02.380Z,11.6
2022-10-18T03:29:02.973Z,11.6
2022-10-18T03:31:02.567Z,11.7
2022-10-18T03:33:02.242Z,11.7
2022-10-18T03:35:02.587Z,11.8
2022-10-18T03:37:03.496Z,11.7
2022-10-18T03:39:06.398Z,11.8
2022-10-18T03:41:10.801Z,11.7
2022-10-18T03:43:02.376Z,11.8
2022-10-18T03:45:02.401Z,11.7
2022-10-18T03:47:02.389Z,11.8
2022-10-18T03:49:06.130Z,11.8
2022-10-18T03:51:05.510Z,11.9
2022-10-18T03:53:02.211Z,11.9
2022-10-18T03:55:02.232Z,11.9
2022-10-18T03:57:02.409Z,11.9
2022-10-18T03:59:07.586Z,11.9
2022-10-18T04:01:11.427Z,11.9
2022-10-18T04:03:10.364Z,11.9
2022-10-18T04:05:06.464Z,11.9
2022-10-18T04:07:10.493Z,11.9
2022-10-18T04:09:13.029Z,11.9
2022-10-18T04:11:13.713Z,11.9
2022-10-18T04:13:11.371Z,11.9
2022-10-18T04:15:04.370Z,12
2022-10-18T04:17:04.042Z,12
2022-10-18T04:19:13.244Z,11.9
2022-10-18T04:21:13.483Z,12
2022-10-18T04:23:03.588Z,12.1
2022-10-18T04:25:04.320Z,12.1
2022-10-18T04:27:05.774Z,11.8
2022-10-18T04:29:06.029Z,11.8
2022-10-18T04:31:06.878Z,11.8
2022-10-18T04:33:04.394Z,11.8
2022-10-18T04:35:09.013Z,11.9
2022-10-18T04:37:09.059Z,11.9
2022-10-18T04:39:12.059Z,11.9
2022-10-18T04:41:11.439Z,12
2022-10-18T04:43:08.020Z,12.1
2022-10-18T04:45:06.964Z,12.2
2022-10-18T04:47:03.877Z,12.2
2022-10-18T04:49:04.357Z,12.2
2022-10-18T04:51:10.856Z,12.2
2022-10-18T04:53:10.771Z,12.1
2022-10-18T04:55:07.790Z,12
2022-10-18T04:57:07.506Z,12.2
2022-10-18T04:59:04.370Z,12.2
2022-10-18T05:01:09.432Z,12.2
2022-10-18T05:03:05.834Z,12.2
2022-10-18T05:05:03.999Z,12.2
2022-10-18T05:07:07.567Z,12.2
2022-10-18T05:09:04.710Z,12.2
2022-10-18T05:11:04.458Z,12.2
2022-10-18T05:15:13.481Z,12.3
2022-10-18T05:17:09.294Z,12.2
2022-10-18T05:19:09.061Z,12.2
2022-10-18T05:21:05.061Z,12.2
2022-10-18T05:23:05.785Z,12
2022-10-18T05:25:07.643Z,12.1
2022-10-18T05:27:02.527Z,12.3
2022-10-18T05:29:09.054Z,12.4
2022-10-18T05:31:04.477Z,12.3
2022-10-18T05:33:07.113Z,12.4
2022-10-18T05:35:04.418Z,12.4
2022-10-18T05:37:05.901Z,12.4
2022-10-18T05:39:12.339Z,12.4
2022-10-18T05:41:04.071Z,12.4
2022-10-18T05:43:12.696Z,12.4
2022-10-18T05:45:06.030Z,12.5
2022-10-18T05:47:04.090Z,12.5
2022-10-18T05:49:05.904Z,12.5
2022-10-18T05:51:07.162Z,12.4
2022-10-18T05:53:11.811Z,12.5
2022-10-18T05:55:12.045Z,12.5
2022-10-18T05:57:10.007Z,12.5
2022-10-18T05:59:13.179Z,12.6
2022-10-18T06:01:13.150Z,12.7
2022-10-18T06:03:04.194Z,12.7
2022-10-18T06:05:02.630Z,12.7
2022-10-18T06:07:07.226Z,12.7
2022-10-18T06:09:02.574Z,12.7
2022-10-18T06:11:10.744Z,12.6
2022-10-18T06:13:04.062Z,12.7
2022-10-18T06:15:08.884Z,12.7
2022-10-18T06:17:09.460Z,12.8
2022-10-18T06:19:12.250Z,12.7
2022-10-18T06:21:13.263Z,12.8
2022-10-18T06:23:04.417Z,12.8
2022-10-18T06:25:04.603Z,12.7
2022-10-18T06:27:07.564Z,12.8
2022-10-18T06:29:06.281Z,12.9
2022-10-18T06:31:05.819Z,12.8
2022-10-18T06:33:04.452Z,12.9
2022-10-18T06:35:08.153Z,13
2022-10-18T06:37:02.643Z,13.1
2022-10-18T06:39:05.951Z,13.2
2022-10-18T06:41:08.148Z,13.3
2022-10-18T06:43:20.396Z,13.4
2022-10-18T06:45:04.457Z,13.4
2022-10-18T06:49:08.996Z,13.5
2022-10-18T06:51:10.174Z,13.6
2022-10-18T06:53:02.644Z,13.6
2022-10-18T06:55:11.743Z,13.5
2022-10-18T06:57:02.622Z,13.5
2022-10-18T06:59:11.764Z,13.4
2022-10-18T07:01:06.984Z,13.4
2022-10-18T07:03:13.615Z,13.3
2022-10-18T07:05:11.346Z,13.3
2022-10-18T07:07:07.641Z,13.4
2022-10-18T07:09:02.619Z,13.5
2022-10-18T07:11:04.496Z,13.5
2022-10-18T07:13:27.219Z,13.5
2022-10-18T07:15:08.330Z,13.3
2022-10-18T07:17:04.439Z,13.5
2022-10-18T07:19:08.394Z,13.4
2022-10-18T07:21:04.025Z,13.4
2022-10-18T07:23:08.487Z,13.5
2022-10-18T07:25:11.396Z,13.5
2022-10-18T07:27:09.474Z,13.5
2022-10-18T07:29:11.266Z,13.5
2022-10-18T07:31:05.044Z,13.6
2022-10-18T07:33:02.288Z,13.5
2022-10-18T07:35:02.601Z,13.5
2022-10-18T07:37:04.461Z,13.5
2022-10-18T07:39:04.627Z,13.5
2022-10-18T07:41:02.516Z,13.6
2022-10-18T07:43:06.232Z,13.8
2022-10-18T07:45:02.773Z,13.8
2022-10-18T07:47:09.163Z,13.8
2022-10-18T07:49:07.257Z,13.9
2022-10-18T07:51:02.737Z,14.1
2022-10-18T07:53:04.557Z,14
2022-10-18T07:55:04.565Z,14
2022-10-18T07:57:02.778Z,14.1
2022-10-18T07:59:02.235Z,14.2
2022-10-18T08:01:06.469Z,14.3
2022-10-18T08:03:10.608Z,14.5
2022-10-18T08:05:11.372Z,14.2
2022-10-18T08:07:02.232Z,14.3
2022-10-18T08:09:06.074Z,14.4
2022-10-18T08:11:02.234Z,14.8
2022-10-18T08:13:11.010Z,14.9
2022-10-18T08:15:10.246Z,14.9
2022-10-18T08:17:02.301Z,15.1
2022-10-18T08:19:02.489Z,15
2022-10-18T08:21:02.536Z,15.2
2022-10-18T08:23:06.037Z,15.4
2022-10-18T08:25:02.619Z,15.3
2022-10-18T08:27:02.463Z,15.5
2022-10-18T08:29:21.815Z,15.3
2022-10-18T08:31:02.251Z,15.3
2022-10-18T08:38:49.683Z,17
2022-10-18T08:48:24.758Z,17.3
2022-10-18T09:08:03.293Z,17.6
2022-10-18T09:09:37.755Z,17.6
2022-10-18T09:12:21.167Z,17.7
2022-10-18T09:20:22.664Z,17.8
2022-10-18T09:23:27.781Z,17.8
2022-10-18T09:29:11.041Z,18.1
2022-10-18T09:31:16.145Z,18.2
2022-10-18T09:35:22.327Z,18.3
2022-10-18T09:42:06.654Z,18.4
2022-10-18T09:45:17.292Z,18.5
2022-10-18T09:51:23.722Z,18.5
2022-10-18T09:55:58.296Z,18.5
2022-10-18T09:59:34.076Z,18.6
2022-10-18T10:06:38.170Z,18.7
2022-10-18T10:06:39.202Z,18.8
2022-10-18T10:08:42.198Z,18.8
2022-10-18T10:10:43.718Z,18.8
2022-10-18T10:12:40.439Z,18.9
2022-10-18T10:14:40.788Z,18.9
2022-10-18T10:18:42.684Z,18.9
2022-10-18T10:20:42.782Z,18.9
2022-10-18T10:24:42.477Z,19
2022-10-18T10:26:43.579Z,19
2022-10-18T10:28:43.518Z,19.1
2022-10-18T10:30:40.807Z,19.1
2022-10-18T10:32:41.922Z,19.1
2022-10-18T10:34:44.766Z,19.1
2022-10-18T10:36:40.482Z,19.1
2022-10-18T10:38:42.039Z,19.2
2022-10-18T10:40:43.605Z,19.2
2022-10-18T10:42:43.206Z,19.2
2022-10-18T10:44:43.135Z,19.3
2022-10-18T10:46:43.681Z,19.3
2022-10-18T10:48:42.731Z,19.3
2022-10-18T10:50:43.174Z,19.4
2022-10-18T10:52:44.176Z,19.4
2022-10-18T10:54:41.368Z,19.3
2022-10-18T10:56:43.246Z,19.3
2022-10-18T11:00:40.515Z,19.3
2022-10-18T11:02:51.148Z,19.3
2022-10-18T11:04:43.737Z,19.3
2022-10-18T11:06:42.635Z,19.4
2022-10-18T11:08:39.473Z,19.6
2022-10-18T11:10:44.006Z,19.6
2022-10-18T11:12:43.610Z,19.6
2022-10-18T11:14:40.547Z,19.7
2022-10-18T11:18:42.966Z,19.9
2022-10-18T11:20:43.308Z,19.9
2022-10-18T11:22:43.810Z,19.9
2022-10-18T11:24:42.772Z,20
2022-10-18T11:26:42.759Z,20
2022-10-18T11:28:43.750Z,20
2022-10-18T11:30:43.221Z,20
2022-10-18T11:32:40.554Z,20.1
2022-10-18T11:34:43.403Z,20.1
2022-10-18T11:36:49.274Z,20
2022-10-18T11:38:43.162Z,20
2022-10-18T11:40:43.700Z,20
2022-10-18T11:42:41.442Z,19.9
2022-10-18T11:44:41.704Z,19.9
2022-10-18T11:46:44.565Z,19.9
2022-10-18T11:48:41.586Z,19.9
2022-10-18T11:50:42.878Z,19.8
2022-10-18T11:52:44.224Z,19.8
2022-10-18T11:54:41.510Z,19.8
2022-10-18T11:56:42.316Z,19.7
2022-10-18T11:58:44.203Z,19.7
2022-10-18T12:00:57.339Z,19.8
2022-10-18T12:02:42.706Z,19.7
2022-10-18T12:04:48.962Z,19.7
2022-10-18T12:06:43.736Z,19.8
2022-10-18T12:08:42.559Z,19.8
2022-10-18T12:10:52.903Z,19.8
2022-10-18T12:12:39.686Z,19.7
2022-10-18T12:14:41.684Z,19.7
2022-10-18T12:16:51.274Z,19.6
2022-10-18T12:18:40.763Z,19.6
2022-10-18T12:20:42.901Z,19.6
2022-10-18T12:24:39.794Z,19.6
2022-10-18T12:26:43.084Z,19.6
2022-10-18T12:28:44.150Z,19.6
2022-10-18T12:30:43.878Z,19.6
2022-10-18T12:32:51.624Z,19.6
2022-10-18T12:36:43.613Z,19.6
2022-10-18T12:38:44.350Z,19.6
2022-10-18T12:40:44.113Z,19.6
2022-10-18T12:42:40.623Z,19.7
2022-10-18T12:44:44.241Z,19.8
2022-10-18T12:48:39.939Z,19.9
2022-10-18T12:50:42.069Z,19.9
2022-10-18T12:52:44.581Z,19.9
2022-10-18T12:54:42.575Z,19.8
2022-10-18T12:56:41.479Z,19.8
2022-10-18T12:58:44.708Z,19.8
2022-10-18T13:00:40.083Z,19.8
2022-10-18T13:02:42.524Z,19.9
2022-10-18T13:04:43.880Z,19.9
2022-10-18T13:06:39.415Z,19.9
2022-10-18T13:08:43.764Z,19.9
2022-10-18T13:10:43.373Z,20
2022-10-18T13:12:44.974Z,20
2022-10-18T13:14:48.152Z,20
2022-10-18T13:16:44.653Z,20.1
2022-10-18T13:18:40.207Z,20.1
2022-10-18T13:20:42.201Z,20.1
2022-10-18T13:22:44.945Z,20.1
2022-10-18T13:24:40.828Z,20.1
2022-10-18T13:26:43.591Z,20.1
2022-10-18T13:28:44.679Z,20.1
2022-10-18T13:30:43.127Z,20.1
2022-10-18T13:32:43.133Z,20.1
2022-10-18T13:36:41.211Z,20.2
2022-10-18T13:38:42.888Z,20.2
2022-10-18T13:40:44.780Z,20.1
2022-10-18T13:42:42.974Z,20
2022-10-18T13:44:42.813Z,20
2022-10-18T13:46:44.868Z,19.9
2022-10-18T13:48:40.651Z,19.8
2022-10-18T13:50:44.815Z,19.7
2022-10-18T13:52:45.154Z,19.6
2022-10-18T13:54:42.010Z,19.7
2022-10-18T13:56:42.236Z,19.8
2022-10-18T13:58:49.087Z,19.8
2022-10-18T14:00:44.786Z,19.8
2022-10-18T14:02:51.400Z,19.9
2022-10-18T14:04:46.150Z,19.9
2022-10-18T14:06:44.405Z,19.9
2022-10-18T14:08:43.690Z,20
2022-10-18T14:11:01.182Z,20
2022-10-18T14:12:41.936Z,20
2022-10-18T14:14:43.144Z,20
2022-10-18T14:18:44.502Z,20
2022-10-18T14:20:49.769Z,20.1
2022-10-18T14:24:41.399Z,20.1
2022-10-18T14:26:41.978Z,20.1
2022-10-18T14:28:59.417Z,20.1
2022-10-18T14:30:43.836Z,20
2022-10-18T14:32:44.710Z,19.9
2022-10-18T14:34:45.302Z,19.8
2022-10-18T14:36:44.892Z,19.8
2022-10-18T14:38:43.897Z,19.8
2022-10-18T14:40:45.364Z,19.9
2022-10-18T14:42:45.007Z,19.9
2022-10-18T14:44:44.891Z,19.9
2022-10-18T14:46:45.638Z,19.9
2022-10-18T14:48:44.405Z,19.9
2022-10-18T14:50:42.842Z,19.8
2022-10-18T14:52:45.796Z,19.8
2022-10-18T14:54:44.487Z,19.8
2022-10-18T14:56:41.803Z,19.7
2022-10-18T15:02:40.994Z,19.6
2022-10-18T15:06:42.710Z,19.6
2022-10-18T15:08:42.690Z,19.6
2022-10-18T15:12:57.744Z,19.6
2022-10-18T15:14:42.781Z,19.6
2022-10-18T15:16:45.836Z,19.6
2022-10-18T15:18:42.774Z,19.6
2022-10-18T15:20:43.003Z,19.5
2022-10-18T15:24:44.593Z,19.5
2022-10-18T15:26:43.746Z,19.4
2022-10-18T15:30:45.474Z,19.4
2022-10-18T15:32:43.308Z,19.3
2022-10-18T15:38:46.259Z,19.1
2022-10-18T15:40:45.724Z,19.1
2022-10-18T15:42:47.154Z,19.2
2022-10-18T15:44:45.436Z,19.2
2022-10-18T15:48:44.552Z,19.2
2022-10-18T15:50:45.333Z,19.1
2022-10-18T15:56:42.110Z,18.9
2022-10-18T15:58:46.525Z,18.8
2022-10-18T16:00:45.621Z,18.8
2022-10-18T16:02:45.674Z,18.8
2022-10-18T16:06:44.777Z,18.8
2022-10-18T16:08:42.602Z,18.7
2022-10-18T16:10:47.328Z,18.7
2022-10-18T16:12:44.181Z,18.6
2022-10-18T16:14:42.574Z,18.6
2022-10-18T16:16:47.654Z,18.5
2022-10-18T16:18:45.844Z,18.4
2022-10-18T16:20:44.122Z,18.4
2022-10-18T16:22:47.867Z,18.3
2022-10-18T16:24:41.620Z,18.2
2022-10-18T16:26:45.246Z,18.1
2022-10-18T16:30:44.407Z,17.9
2022-10-18T16:32:45.761Z,17.8
2022-10-18T16:34:46.405Z,17.8
2022-10-18T16:36:45.742Z,17.6
2022-10-18T16:38:42.765Z,17.5
2022-10-18T16:40:47.582Z,17.4
2022-10-18T16:42:42.995Z,17.4
2022-10-18T16:44:47.438Z,17.4
2022-10-18T16:46:49.931Z,17.4
2022-10-18T16:48:45.714Z,17.3
2022-10-18T16:50:46.550Z,17.2
2022-10-18T16:52:46.367Z,17.2
2022-10-18T16:54:46.205Z,17.2
2022-10-18T16:56:46.500Z,17.3
2022-10-18T17:00:46.450Z,17.2
2022-10-18T17:02:43.295Z,17.2
2022-10-18T17:04:48.138Z,17.2
2022-10-18T17:06:46.395Z,17.1
2022-10-18T17:08:43.316Z,17.2
2022-10-18T17:10:48.129Z,17.1
2022-10-18T17:12:44.308Z,17.1
2022-10-18T17:14:46.473Z,17.1
2022-10-18T17:16:50.156Z,17.1
2022-10-18T17:18:46.489Z,17.1
2022-10-18T17:20:44.327Z,17
2022-10-18T17:22:48.453Z,17
2022-10-18T17:24:43.321Z,17
2022-10-18T17:26:47.071Z,17
2022-10-18T17:30:46.152Z,16.8
2022-10-18T17:32:46.519Z,16.8
2022-10-18T17:36:44.297Z,16.8
2022-10-18T17:40:46.039Z,16.8
2022-10-18T17:42:42.945Z,16.8
2022-10-18T17:44:45.611Z,16.8
2022-10-18T17:48:46.501Z,16.6
2022-10-18T17:50:47.413Z,16.7
2022-10-18T17:52:48.192Z,16.6
2022-10-18T17:54:44.713Z,16.5
2022-10-18T17:56:44.726Z,16.5
2022-10-18T17:58:48.058Z,16.5
2022-10-18T18:00:47.756Z,16.5
2022-10-18T18:02:43.562Z,16.5
2022-10-18T18:04:48.426Z,16.5
2022-10-18T18:06:42.956Z,16.5
2022-10-18T18:08:46.075Z,16.5
2022-10-18T18:10:50.067Z,16.5
2022-10-18T18:12:46.943Z,16.5
2022-10-18T18:14:43.312Z,16.5
2022-10-18T18:16:48.126Z,16.3
2022-10-18T18:18:46.578Z,16.4
2022-10-18T18:20:44.746Z,16.2
2022-10-18T18:24:45.731Z,16.1
2022-10-18T18:26:46.463Z,16.1
2022-10-18T18:28:47.815Z,16.1
2022-10-18T18:30:46.134Z,16.1
2022-10-18T18:32:43.310Z,16.1
2022-10-18T18:34:47.629Z,16
2022-10-18T18:36:47.762Z,15.8
2022-10-18T18:38:43.313Z,15.8
2022-10-18T18:40:47.935Z,15.6
2022-10-18T18:42:44.302Z,15.6
2022-10-18T18:44:47.620Z,15.5
2022-10-18T18:46:48.070Z,15.5
2022-10-18T18:48:44.661Z,15.5
2022-10-18T18:50:46.506Z,15.5
2022-10-18T18:52:48.286Z,15.3
2022-10-18T18:54:47.318Z,15.3
2022-10-18T18:56:45.619Z,15.4
2022-10-18T19:00:44.717Z,15.3
2022-10-18T19:02:46.937Z,15.3
2022-10-18T19:04:48.047Z,15.3
2022-10-18T19:06:44.341Z,15.3
2022-10-18T19:08:45.976Z,15.3
2022-10-18T19:12:45.471Z,15.3
2022-10-18T19:14:43.796Z,15.2
2022-10-18T19:16:48.106Z,15.2
2022-10-18T19:18:45.453Z,15.1
2022-10-18T19:20:43.330Z,15
2022-10-18T19:22:48.120Z,15.1
2022-10-18T19:24:46.039Z,15.1
2022-10-18T19:26:45.294Z,15.1
2022-10-18T19:28:47.643Z,15
2022-10-18T19:30:45.625Z,14.9
2022-10-18T19:32:46.524Z,14.9
2022-10-18T19:34:49.438Z,14.9
2022-10-18T19:36:44.688Z,14.7
2022-10-18T19:38:47.283Z,14.7
2022-10-18T19:40:50.364Z,14.6
2022-10-18T19:42:48.154Z,14.6
2022-10-18T19:44:47.582Z,14.6
2022-10-18T19:48:47.391Z,14.7
2022-10-18T19:50:43.034Z,14.7
2022-10-18T19:54:46.569Z,14.6
2022-10-18T19:56:45.271Z,14.6
2022-10-18T19:58:48.271Z,14.5
2022-10-18T20:00:46.413Z,14.6
2022-10-18T20:02:43.292Z,14.6
2022-10-18T20:06:46.130Z,14.6
2022-10-18T20:08:45.336Z,14.7
2022-10-18T20:10:43.809Z,14.6
2022-10-18T20:12:46.507Z,14.6
2022-10-18T20:14:46.214Z,14.6
2022-10-18T20:18:46.157Z,14.4
2022-10-18T20:20:48.025Z,14.3
2022-10-18T20:24:43.937Z,14.2
2022-10-18T20:26:44.466Z,14.2
2022-10-18T20:28:47.358Z,14.2
2022-10-18T20:30:46.324Z,14.3
2022-10-18T20:32:46.614Z,14.3
2022-10-18T20:34:48.211Z,14.2
2022-10-18T20:36:42.279Z,14.2
2022-10-18T20:38:43.051Z,14.3
2022-10-18T20:42:43.003Z,14.3
2022-10-18T20:44:47.612Z,14.3
2022-10-18T20:46:48.185Z,14.3
2022-10-18T20:48:46.084Z,14.3
2022-10-18T20:50:45.583Z,14.3
2022-10-18T20:52:46.935Z,14.3
2022-10-18T20:54:47.709Z,14.2
2022-10-18T20:56:47.413Z,14.1
2022-10-18T20:58:46.911Z,14
2022-10-18T21:00:46.069Z,14
2022-10-18T21:02:46.193Z,14
2022-10-18T21:06:43.364Z,14
2022-10-18T21:08:46.985Z,13.9
2022-10-18T21:12:47.028Z,13.9
2022-10-18T21:14:45.723Z,14
2022-10-18T21:18:45.645Z,13.9
2022-10-18T21:20:47.257Z,13.9
2022-10-18T21:22:47.210Z,13.9
2022-10-18T21:24:46.675Z,13.8
2022-10-18T21:26:46.123Z,13.7
2022-10-18T21:28:48.148Z,13.8
2022-10-18T21:30:44.663Z,13.9
2022-10-18T21:32:44.794Z,13.8
2022-10-18T21:34:47.191Z,13.8
2022-10-18T21:36:43.374Z,13.7
2022-10-18T21:38:45.762Z,13.5
2022-10-18T21:42:47.677Z,13.4
2022-10-18T21:44:46.466Z,13.4
2022-10-18T21:48:46.465Z,13.3
2022-10-18T21:50:43.367Z,13.3
2022-10-18T21:52:47.942Z,13.2
2022-10-18T21:54:44.749Z,13.2
2022-10-18T21:56:44.706Z,13.2
2022-10-18T21:58:48.083Z,13.1
2022-10-18T22:00:47.960Z,13.1
2022-10-18T22:02:47.007Z,13.1
2022-10-18T22:04:48.077Z,13
2022-10-18T22:06:46.532Z,13.2
2022-10-18T22:10:48.310Z,13.1
2022-10-18T22:12:46.150Z,13.1
2022-10-18T22:14:46.589Z,13.1
2022-10-18T22:16:48.598Z,13.1
2022-10-18T22:18:44.314Z,13
2022-10-18T22:20:46.944Z,13
2022-10-18T22:24:43.375Z,12.9
2022-10-18T22:26:42.920Z,12.9
2022-10-18T22:28:45.077Z,12.9
2022-10-18T22:30:44.330Z,12.8
2022-10-18T22:32:47.094Z,12.8
2022-10-18T22:36:48.180Z,13
2022-10-18T22:38:45.987Z,12.9
2022-10-18T22:40:47.630Z,12.9
2022-10-18T22:42:47.041Z,12.8
2022-10-18T22:44:45.749Z,12.8
2022-10-18T22:46:45.349Z,12.6
2022-10-18T22:48:46.998Z,12.7
2022-10-18T22:50:46.564Z,12.8
2022-10-18T22:54:46.629Z,12.7
2022-10-18T22:56:46.891Z,12.7
2022-10-18T22:58:48.379Z,12.6
2022-10-18T23:00:45.940Z,12.6
2022-10-18T23:02:45.722Z,12.8
2022-10-18T23:04:48.229Z,12.9
2022-10-18T23:06:46.084Z,12.9
2022-10-18T23:08:47.456Z,13
2022-10-18T23:10:48.163Z,13.1
2022-10-18T23:12:44.329Z,13.2
2022-10-18T23:14:42.616Z,13.1
2022-10-18T23:16:47.763Z,13.1
2022-10-18T23:18:43.052Z,13.1
2022-10-18T23:20:46.637Z,13.2
2022-10-18T23:22:48.144Z,13.2
2022-10-18T23:24:47.022Z,13.3
2022-10-18T23:26:46.979Z,13.3
2022-10-18T23:30:44.349Z,13.3
2022-10-18T23:32:45.316Z,13.4
2022-10-18T23:34:48.127Z,13.5
2022-10-18T23:38:46.447Z,13.5
2022-10-18T23:40:48.198Z,13.4
2022-10-18T23:42:44.794Z,13.4
2022-10-18T23:44:47.373Z,13.5
2022-10-18T23:50:43.025Z,13.7
2022-10-18T23:52:47.694Z,13.8
2022-10-18T23:54:46.775Z,13.7
2022-10-18T23:56:43.387Z,13.8
2022-10-18T23:58:47.703Z,13.8
